sensor_id;sensor_type;location;lat;lon;timestamp;pressure;altitude;pressure_sealevel;temperature;humidity
68889;BME280;55930;47.412;8.790;2023-08-12T00:02:56;95222.06;;;17.42;100.00
68889;BME280;55930;47.412;8.790;2023-08-12T00:06:17;95215.97;;;17.41;100.00
68889;BME280;55930;47.412;8.790;2023-08-12T00:09:37;95218.41;;;17.34;100.00
68889;BME280;55930;47.412;8.790;2023-08-12T00:12:57;95220.13;;;17.31;100.00
68889;BME280;55930;47.412;8.790;2023-08-12T00:16:18;95210.38;;;17.28;100.00
68889;BME280;55930;47.412;8.790;2023-08-12T00:19:38;95199.41;;;17.43;100.00
68889;BME280;55930;47.412;8.790;2023-08-12T00:22:58;95203.56;;;17.44;100.00
68889;BME280;55930;47.412;8.790;2023-08-12T00:26:19;95198.69;;;17.37;100.00
68889;BME280;55930;47.412;8.790;2023-08-12T00:29:39;95193.78;;;17.24;100.00
68889;BME280;55930;47.412;8.790;2023-08-12T00:33:00;95191.81;;;17.19;100.00
68889;BME280;55930;47.412;8.790;2023-08-12T00:36:20;95201.81;;;17.18;100.00
68889;BME280;55930;47.412;8.790;2023-08-12T00:39:40;95197.94;;;17.25;100.00
68889;BME280;55930;47.412;8.790;2023-08-12T00:43:00;95183.78;;;17.25;100.00
68889;BME280;55930;47.412;8.790;2023-08-12T00:46:21;95199.13;;;17.24;100.00
68889;BME280;55930;47.412;8.790;2023-08-12T00:49:42;95197.44;;;17.15;100.00
68889;BME280;55930;47.412;8.790;2023-08-12T00:53:06;95203.50;;;17.10;100.00
68889;BME280;55930;47.412;8.790;2023-08-12T00:56:27;95201.81;;;17.18;100.00
68889;BME280;55930;47.412;8.790;2023-08-12T00:59:47;95201.34;;;17.26;100.00
68889;BME280;55930;47.412;8.790;2023-08-12T01:03:09;95205.25;;;17.41;100.00
68889;BME280;55930;47.412;8.790;2023-08-12T01:06:29;95195.50;;;17.44;100.00
68889;BME280;55930;47.412;8.790;2023-08-12T01:09:49;95186.97;;;17.23;100.00
68889;BME280;55930;47.412;8.790;2023-08-12T01:13:58;95181.34;;;17.10;100.00
68889;BME280;55930;47.412;8.790;2023-08-12T01:16:59;95184.28;;;17.06;100.00
68889;BME280;55930;47.412;8.790;2023-08-12T01:20:25;95180.13;;;17.05;100.00
68889;BME280;55930;47.412;8.790;2023-08-12T01:23:46;95188.91;;;17.11;100.00
68889;BME280;55930;47.412;8.790;2023-08-12T01:27:07;95198.66;;;17.20;100.00
68889;BME280;55930;47.412;8.790;2023-08-12T01:30:28;95194.75;;;17.21;100.00
68889;BME280;55930;47.412;8.790;2023-08-12T01:34:12;95186.72;;;17.21;100.00
68889;BME280;55930;47.412;8.790;2023-08-12T01:37:31;95184.25;;;17.17;100.00
68889;BME280;55930;47.412;8.790;2023-08-12T01:40:54;95184.03;;;17.15;100.00
68889;BME280;55930;47.412;8.790;2023-08-12T01:44:15;95186.72;;;17.15;100.00
68889;BME280;55930;47.412;8.790;2023-08-12T01:47:36;95193.03;;;17.18;100.00
68889;BME280;55930;47.412;8.790;2023-08-12T01:50:56;95177.97;;;17.32;100.00
68889;BME280;55930;47.412;8.790;2023-08-12T01:54:16;95171.13;;;17.14;100.00
68889;BME280;55930;47.412;8.790;2023-08-12T01:57:37;95168.41;;;16.97;100.00
68889;BME280;55930;47.412;8.790;2023-08-12T02:00:57;95171.81;;;17.09;100.00
68889;BME280;55930;47.412;8.790;2023-08-12T02:04:17;95173.31;;;17.21;100.00
68889;BME280;55930;47.412;8.790;2023-08-12T02:07:38;95171.84;;;17.26;100.00
68889;BME280;55930;47.412;8.790;2023-08-12T02:10:58;95165.75;;;17.42;100.00
68889;BME280;55930;47.412;8.790;2023-08-12T02:14:18;95160.41;;;17.31;100.00
68889;BME280;55930;47.412;8.790;2023-08-12T02:17:39;95165.78;;;17.47;100.00
68889;BME280;55930;47.412;8.790;2023-08-12T02:21:01;95165.25;;;17.60;100.00
68889;BME280;55930;47.412;8.790;2023-08-12T02:24:22;95169.41;;;17.50;100.00
68889;BME280;55930;47.412;8.790;2023-08-12T02:27:42;95166.72;;;17.72;100.00
68889;BME280;55930;47.412;8.790;2023-08-12T02:31:02;95158.22;;;17.68;100.00
68889;BME280;55930;47.412;8.790;2023-08-12T02:34:23;95151.59;;;17.75;100.00
68889;BME280;55930;47.412;8.790;2023-08-12T02:37:43;95142.56;;;17.83;100.00
68889;BME280;55930;47.412;8.790;2023-08-12T02:41:06;95141.84;;;17.77;100.00
68889;BME280;55930;47.412;8.790;2023-08-12T02:44:28;95134.53;;;17.61;100.00
68889;BME280;55930;47.412;8.790;2023-08-12T02:47:48;95138.19;;;17.58;100.00
68889;BME280;55930;47.412;8.790;2023-08-12T02:51:08;95139.19;;;17.55;100.00
68889;BME280;55930;47.412;8.790;2023-08-12T02:54:30;95138.94;;;17.47;100.00
68889;BME280;55930;47.412;8.790;2023-08-12T02:57:52;95139.19;;;17.44;100.00
68889;BME280;55930;47.412;8.790;2023-08-12T03:01:13;95138.69;;;17.51;100.00
68889;BME280;55930;47.412;8.790;2023-08-12T03:04:33;95132.34;;;17.48;100.00
68889;BME280;55930;47.412;8.790;2023-08-12T03:07:53;95140.41;;;17.54;100.00
68889;BME280;55930;47.412;8.790;2023-08-12T03:11:14;95135.03;;;17.71;100.00
68889;BME280;55930;47.412;8.790;2023-08-12T03:14:35;95134.31;;;17.70;100.00
68889;BME280;55930;47.412;8.790;2023-08-12T03:17:56;95130.38;;;17.82;100.00
68889;BME280;55930;47.412;8.790;2023-08-12T03:21:16;95138.44;;;17.71;100.00
68889;BME280;55930;47.412;8.790;2023-08-12T03:24:36;95140.38;;;17.76;100.00
68889;BME280;55930;47.412;8.790;2023-08-12T03:27:57;95142.09;;;17.74;100.00
68889;BME280;55930;47.412;8.790;2023-08-12T03:31:17;95142.59;;;17.67;100.00
68889;BME280;55930;47.412;8.790;2023-08-12T03:34:38;95147.25;;;17.72;100.00
68889;BME280;55930;47.412;8.790;2023-08-12T03:37:58;95130.84;;;17.81;100.00
68889;BME280;55930;47.412;8.790;2023-08-12T03:41:19;95129.16;;;17.78;100.00
68889;BME280;55930;47.412;8.790;2023-08-12T03:44:39;95129.88;;;17.73;100.00
68889;BME280;55930;47.412;8.790;2023-08-12T03:47:59;95135.75;;;17.77;100.00
68889;BME280;55930;47.412;8.790;2023-08-12T03:51:19;95135.00;;;17.82;100.00
68889;BME280;55930;47.412;8.790;2023-08-12T03:54:40;95134.50;;;17.83;100.00
68889;BME280;55930;47.412;8.790;2023-08-12T03:58:00;95131.03;;;18.05;100.00
68889;BME280;55930;47.412;8.790;2023-08-12T04:01:21;95120.00;;;18.20;100.00
68889;BME280;55930;47.412;8.790;2023-08-12T04:04:41;95116.59;;;18.19;100.00
68889;BME280;55930;47.412;8.790;2023-08-12T04:08:04;95133.47;;;18.09;100.00
68889;BME280;55930;47.412;8.790;2023-08-12T04:11:24;95132.72;;;18.19;100.00
68889;BME280;55930;47.412;8.790;2023-08-12T04:14:44;95121.91;;;18.30;100.00
68889;BME280;55930;47.412;8.790;2023-08-12T04:18:05;95112.91;;;18.22;100.00
68889;BME280;55930;47.412;8.790;2023-08-12T04:21:25;95115.13;;;18.13;100.00
68889;BME280;55930;47.412;8.790;2023-08-12T04:24:45;95115.38;;;18.15;100.00
68889;BME280;55930;47.412;8.790;2023-08-12T04:28:06;95122.22;;;18.16;100.00
68889;BME280;55930;47.412;8.790;2023-08-12T04:31:28;95118.97;;;18.34;100.00
68889;BME280;55930;47.412;8.790;2023-08-12T04:34:48;95108.44;;;18.36;100.00
68889;BME280;55930;47.412;8.790;2023-08-12T04:38:11;95104.94;;;18.52;100.00
68889;BME280;55930;47.412;8.790;2023-08-12T04:41:32;95088.44;;;18.78;100.00
68889;BME280;55930;47.412;8.790;2023-08-12T04:44:53;95078.56;;;18.92;100.00
68889;BME280;55930;47.412;8.790;2023-08-12T04:48:13;95079.84;;;18.85;100.00
68889;BME280;55930;47.412;8.790;2023-08-12T04:51:34;95081.50;;;18.94;100.00
68889;BME280;55930;47.412;8.790;2023-08-12T04:54:54;95099.63;;;18.88;100.00
68889;BME280;55930;47.412;8.790;2023-08-12T04:58:14;95099.41;;;18.86;100.00
68889;BME280;55930;47.412;8.790;2023-08-12T05:01:35;95103.19;;;19.07;100.00
68889;BME280;55930;47.412;8.790;2023-08-12T05:04:55;95090.09;;;19.22;100.00
68889;BME280;55930;47.412;8.790;2023-08-12T05:08:19;95087.84;;;19.26;100.00
68889;BME280;55930;47.412;8.790;2023-08-12T05:11:42;95087.75;;;19.37;100.00
68889;BME280;55930;47.412;8.790;2023-08-12T05:15:02;95086.69;;;19.46;100.00
68889;BME280;55930;47.412;8.790;2023-08-12T05:18:23;95077.25;;;19.64;100.00
68889;BME280;55930;47.412;8.790;2023-08-12T05:21:43;95083.69;;;19.79;100.00
68889;BME280;55930;47.412;8.790;2023-08-12T05:25:04;95076.53;;;20.06;100.00
68889;BME280;55930;47.412;8.790;2023-08-12T05:28:25;95056.97;;;20.24;100.00
68889;BME280;55930;47.412;8.790;2023-08-12T05:31:45;95067.06;;;20.43;100.00
68889;BME280;55930;47.412;8.790;2023-08-12T05:35:10;95056.50;;;20.77;100.00
68889;BME280;55930;47.412;8.790;2023-08-12T11:53:50;95152.06;;;24.07;98.03
68889;BME280;55930;47.412;8.790;2023-08-12T11:57:11;95141.22;;;24.79;97.45
68889;BME280;55930;47.412;8.790;2023-08-12T12:00:32;95100.38;;;26.06;90.72
68889;BME280;55930;47.412;8.790;2023-08-12T12:03:53;95016.38;;;27.15;79.80
68889;BME280;55930;47.412;8.790;2023-08-12T12:07:22;94974.03;;;29.83;69.72
68889;BME280;55930;47.412;8.790;2023-08-12T12:10:42;94948.00;;;30.82;59.43
68889;BME280;55930;47.412;8.790;2023-08-12T12:14:03;94952.72;;;30.60;57.58
68889;BME280;55930;47.412;8.790;2023-08-12T12:17:24;94971.06;;;27.79;66.63
68889;BME280;55930;47.412;8.790;2023-08-12T12:24:15;94966.31;;;26.28;64.50
68889;BME280;55930;47.412;8.790;2023-08-12T12:27:37;94966.16;;;26.76;63.86
68889;BME280;55930;47.412;8.790;2023-08-12T12:30:58;94972.81;;;27.32;65.05
68889;BME280;55930;47.412;8.790;2023-08-12T12:34:18;94961.41;;;27.09;61.78
68889;BME280;55930;47.412;8.790;2023-08-12T12:37:39;94959.41;;;25.87;63.53
68889;BME280;55930;47.412;8.790;2023-08-12T12:40:59;94966.34;;;26.53;64.03
68889;BME280;55930;47.412;8.790;2023-08-12T12:44:20;94955.16;;;27.16;62.60
68889;BME280;55930;47.412;8.790;2023-08-12T12:47:40;94967.88;;;27.73;64.97
68889;BME280;55930;47.412;8.790;2023-08-12T12:51:01;94961.28;;;28.37;62.81
68889;BME280;55930;47.412;8.790;2023-08-12T12:54:21;94968.47;;;27.98;66.30
68889;BME280;55930;47.412;8.790;2023-08-12T12:57:41;94950.22;;;27.57;61.12
68889;BME280;55930;47.412;8.790;2023-08-12T13:01:04;94949.84;;;27.77;59.24
68889;BME280;55930;47.412;8.790;2023-08-12T13:04:24;94938.88;;;28.39;57.14
68889;BME280;55930;47.412;8.790;2023-08-12T13:07:45;94942.53;;;28.61;57.19
68889;BME280;55930;47.412;8.790;2023-08-12T13:11:05;94927.34;;;28.31;54.57
68889;BME280;55930;47.412;8.790;2023-08-12T13:14:25;94926.59;;;29.03;56.10
68889;BME280;55930;47.412;8.790;2023-08-12T13:17:46;94920.94;;;28.45;53.80
68889;BME280;55930;47.412;8.790;2023-08-12T13:21:06;94914.53;;;28.60;53.70
68889;BME280;55930;47.412;8.790;2023-08-12T13:24:27;94910.00;;;28.82;53.90
68889;BME280;55930;47.412;8.790;2023-08-12T13:27:47;94911.19;;;28.15;52.68
68889;BME280;55930;47.412;8.790;2023-08-12T13:31:07;94904.53;;;28.82;51.85
68889;BME280;55930;47.412;8.790;2023-08-12T13:34:28;94892.44;;;28.75;51.03
68889;BME280;55930;47.412;8.790;2023-08-12T13:37:49;94893.41;;;28.24;51.17
68889;BME280;55930;47.412;8.790;2023-08-12T13:41:09;94895.56;;;29.18;51.15
68889;BME280;55930;47.412;8.790;2023-08-12T13:44:30;94886.00;;;28.90;49.33
68889;BME280;55930;47.412;8.790;2023-08-12T13:47:51;94888.03;;;28.43;51.66
68889;BME280;55930;47.412;8.790;2023-08-12T13:51:11;94882.22;;;29.60;49.62
68889;BME280;55930;47.412;8.790;2023-08-12T13:54:32;94878.59;;;28.17;51.66
68889;BME280;55930;47.412;8.790;2023-08-12T13:57:52;94872.25;;;29.46;49.79
68889;BME280;55930;47.412;8.790;2023-08-12T14:01:13;94868.66;;;29.62;50.11
68889;BME280;55930;47.412;8.790;2023-08-12T14:04:34;94873.28;;;29.60;50.24
68889;BME280;55930;47.412;8.790;2023-08-12T14:07:54;94879.75;;;29.26;49.23
68889;BME280;55930;47.412;8.790;2023-08-12T14:11:14;94883.34;;;29.28;50.30
68889;BME280;55930;47.412;8.790;2023-08-12T14:14:35;94889.53;;;29.19;50.86
68889;BME280;55930;47.412;8.790;2023-08-12T14:17:55;94882.56;;;28.80;51.95
68889;BME280;55930;47.412;8.790;2023-08-12T14:21:16;94882.63;;;29.76;49.80
68889;BME280;55930;47.412;8.790;2023-08-12T14:24:36;94876.84;;;29.82;48.99
68889;BME280;55930;47.412;8.790;2023-08-12T14:27:56;94871.50;;;29.93;50.11
68889;BME280;55930;47.412;8.790;2023-08-12T14:31:17;94861.19;;;30.23;50.27
68889;BME280;55930;47.412;8.790;2023-08-12T14:34:37;94862.44;;;30.00;49.07
68889;BME280;55930;47.412;8.790;2023-08-12T14:37:57;94863.78;;;29.42;50.24
68889;BME280;55930;47.412;8.790;2023-08-12T14:41:18;94856.25;;;29.71;51.94
68889;BME280;55930;47.412;8.790;2023-08-12T14:44:39;94860.75;;;29.28;51.88
68889;BME280;55930;47.412;8.790;2023-08-12T14:47:59;94844.22;;;28.97;52.58
68889;BME280;55930;47.412;8.790;2023-08-12T14:51:19;94841.16;;;28.83;53.52
68889;BME280;55930;47.412;8.790;2023-08-12T14:54:42;94832.16;;;28.54;54.10
68889;BME280;55930;47.412;8.790;2023-08-12T14:58:03;94836.56;;;28.30;57.26
68889;BME280;55930;47.412;8.790;2023-08-12T15:01:26;94844.31;;;28.24;57.90
68889;BME280;55930;47.412;8.790;2023-08-12T15:04:48;94834.44;;;28.11;58.24
68889;BME280;55930;47.412;8.790;2023-08-12T15:08:11;94840.38;;;27.64;58.38
68889;BME280;55930;47.412;8.790;2023-08-12T15:11:31;94830.94;;;28.28;56.85
68889;BME280;55930;47.412;8.790;2023-08-12T15:14:52;94833.13;;;28.39;57.80
68889;BME280;55930;47.412;8.790;2023-08-12T15:18:12;94822.28;;;28.68;57.84
68889;BME280;55930;47.412;8.790;2023-08-12T15:21:33;94823.19;;;28.90;58.08
68889;BME280;55930;47.412;8.790;2023-08-12T15:24:53;94820.47;;;28.25;55.82
68889;BME280;55930;47.412;8.790;2023-08-12T15:28:14;94834.34;;;28.19;57.19
68889;BME280;55930;47.412;8.790;2023-08-12T15:31:36;94839.09;;;27.92;58.01
68889;BME280;55930;47.412;8.790;2023-08-12T15:34:56;94857.88;;;27.88;61.28
68889;BME280;55930;47.412;8.790;2023-08-12T15:38:16;94859.88;;;27.43;62.84
68889;BME280;55930;47.412;8.790;2023-08-12T15:41:41;94852.97;;;27.42;59.55
68889;BME280;55930;47.412;8.790;2023-08-12T15:45:02;94838.75;;;30.46;52.77
68889;BME280;55930;47.412;8.790;2023-08-12T15:48:23;94820.06;;;31.06;49.31
68889;BME280;55930;47.412;8.790;2023-08-12T15:51:46;94827.00;;;31.07;50.40
68889;BME280;55930;47.412;8.790;2023-08-12T15:55:06;94838.03;;;29.35;55.20
68889;BME280;55930;47.412;8.790;2023-08-12T15:58:27;94836.72;;;28.88;58.65
68889;BME280;55930;47.412;8.790;2023-08-12T16:01:47;94837.16;;;29.04;57.74
68889;BME280;55930;47.412;8.790;2023-08-12T16:05:10;94838.63;;;28.59;56.83
68889;BME280;55930;47.412;8.790;2023-08-12T16:08:31;94831.38;;;28.90;58.02
68889;BME280;55930;47.412;8.790;2023-08-12T16:11:51;94843.13;;;28.64;59.34
68889;BME280;55930;47.412;8.790;2023-08-12T16:15:12;94835.13;;;28.85;58.20
68889;BME280;55930;47.412;8.790;2023-08-12T16:18:33;94848.06;;;28.94;59.68
68889;BME280;55930;47.412;8.790;2023-08-12T16:21:53;94853.81;;;28.98;60.51
68889;BME280;55930;47.412;8.790;2023-08-12T16:25:14;94847.81;;;29.19;60.13
68889;BME280;55930;47.412;8.790;2023-08-12T16:28:34;94860.41;;;28.76;60.27
68889;BME280;55930;47.412;8.790;2023-08-12T16:31:55;94868.41;;;28.64;61.31
68889;BME280;55930;47.412;8.790;2023-08-12T16:35:16;94883.50;;;28.29;63.95
68889;BME280;55930;47.412;8.790;2023-08-12T16:38:36;94889.00;;;28.11;64.35
68889;BME280;55930;47.412;8.790;2023-08-12T16:41:56;94887.44;;;27.47;65.17
68889;BME280;55930;47.412;8.790;2023-08-12T16:45:17;94925.84;;;27.24;69.90
68889;BME280;55930;47.412;8.790;2023-08-12T16:48:37;94918.16;;;26.88;69.03
68889;BME280;55930;47.412;8.790;2023-08-12T16:51:58;94930.59;;;26.74;69.42
68889;BME280;55930;47.412;8.790;2023-08-12T16:55:21;94941.59;;;26.34;70.82
68889;BME280;55930;47.412;8.790;2023-08-12T16:58:41;94948.38;;;26.25;70.10
68889;BME280;55930;47.412;8.790;2023-08-12T17:02:01;94944.34;;;25.94;72.32
68889;BME280;55930;47.412;8.790;2023-08-12T17:05:22;94954.41;;;26.09;73.14
68889;BME280;55930;47.412;8.790;2023-08-12T17:08:42;94943.13;;;26.52;71.73
68889;BME280;55930;47.412;8.790;2023-08-12T17:12:03;94959.25;;;26.58;72.82
68889;BME280;55930;47.412;8.790;2023-08-12T17:15:24;94939.34;;;26.73;70.79
68889;BME280;55930;47.412;8.790;2023-08-12T17:18:45;94935.06;;;26.62;70.02
68889;BME280;55930;47.412;8.790;2023-08-12T17:22:06;94946.72;;;26.30;71.65
68889;BME280;55930;47.412;8.790;2023-08-12T17:25:26;94938.00;;;26.32;70.53
68889;BME280;55930;47.412;8.790;2023-08-12T17:28:46;94938.94;;;26.19;70.62
68889;BME280;55930;47.412;8.790;2023-08-12T17:32:07;94951.06;;;26.33;70.87
68889;BME280;55930;47.412;8.790;2023-08-12T17:35:27;94941.88;;;26.13;69.50
68889;BME280;55930;47.412;8.790;2023-08-12T17:38:49;94954.53;;;26.26;72.10
68889;BME280;55930;47.412;8.790;2023-08-12T17:42:09;94951.44;;;26.22;71.59
68889;BME280;55930;47.412;8.790;2023-08-12T17:45:30;94953.22;;;25.87;73.08
68889;BME280;55930;47.412;8.790;2023-08-12T17:48:50;94984.13;;;25.51;77.75
68889;BME280;55930;47.412;8.790;2023-08-12T17:52:10;95010.25;;;25.32;80.91
68889;BME280;55930;47.412;8.790;2023-08-12T17:55:31;95022.22;;;25.06;84.59
68889;BME280;55930;47.412;8.790;2023-08-12T17:58:51;95043.72;;;24.89;87.39
68889;BME280;55930;47.412;8.790;2023-08-12T18:02:11;95046.00;;;24.62;89.04
68889;BME280;55930;47.412;8.790;2023-08-12T18:05:32;95050.66;;;24.38;91.38
68889;BME280;55930;47.412;8.790;2023-08-12T18:08:54;95058.16;;;24.17;92.87
68889;BME280;55930;47.412;8.790;2023-08-12T18:12:15;95059.34;;;24.01;94.55
68889;BME280;55930;47.412;8.790;2023-08-12T18:15:36;95059.47;;;23.95;94.41
68889;BME280;55930;47.412;8.790;2023-08-12T18:18:56;95065.59;;;23.60;96.52
68889;BME280;55930;47.412;8.790;2023-08-12T18:22:16;95073.66;;;23.32;98.89
68889;BME280;55930;47.412;8.790;2023-08-12T18:25:39;95091.09;;;23.02;100.00
68889;BME280;55930;47.412;8.790;2023-08-12T18:29:00;95103.91;;;23.02;100.00
68889;BME280;55930;47.412;8.790;2023-08-12T18:32:20;95103.13;;;22.94;100.00
68889;BME280;55930;47.412;8.790;2023-08-12T18:35:40;95110.47;;;22.59;100.00
68889;BME280;55930;47.412;8.790;2023-08-12T18:39:01;95121.97;;;22.39;100.00
68889;BME280;55930;47.412;8.790;2023-08-12T18:42:21;95130.00;;;22.31;100.00
68889;BME280;55930;47.412;8.790;2023-08-12T18:45:41;95125.00;;;22.22;100.00
68889;BME280;55930;47.412;8.790;2023-08-12T18:49:03;95128.25;;;22.07;100.00
68889;BME280;55930;47.412;8.790;2023-08-12T18:52:23;95154.19;;;21.84;100.00
68889;BME280;55930;47.412;8.790;2023-08-12T18:55:44;95157.50;;;21.90;100.00
68889;BME280;55930;47.412;8.790;2023-08-12T18:59:04;95184.28;;;21.62;100.00
68889;BME280;55930;47.412;8.790;2023-08-12T19:02:24;95196.53;;;21.63;100.00
68889;BME280;55930;47.412;8.790;2023-08-12T19:05:45;95198.69;;;21.64;100.00
68889;BME280;55930;47.412;8.790;2023-08-12T19:09:07;95203.69;;;21.60;100.00
68889;BME280;55930;47.412;8.790;2023-08-12T19:12:29;95208.31;;;21.47;100.00
68889;BME280;55930;47.412;8.790;2023-08-12T19:15:49;95220.75;;;21.18;100.00
68889;BME280;55930;47.412;8.790;2023-08-12T19:19:10;95240.75;;;21.28;100.00
68889;BME280;55930;47.412;8.790;2023-08-12T19:22:30;95245.69;;;21.24;100.00
68889;BME280;55930;47.412;8.790;2023-08-12T19:25:53;95241.03;;;21.24;100.00
68889;BME280;55930;47.412;8.790;2023-08-12T19:29:14;95239.19;;;21.14;100.00
68889;BME280;55930;47.412;8.790;2023-08-12T19:32:51;95243.03;;;20.99;100.00
68889;BME280;55930;47.412;8.790;2023-08-12T19:36:11;95240.56;;;20.83;100.00
68889;BME280;55930;47.412;8.790;2023-08-12T19:39:32;95243.63;;;20.92;100.00
68889;BME280;55930;47.412;8.790;2023-08-12T19:42:52;95244.94;;;20.86;100.00
68889;BME280;55930;47.412;8.790;2023-08-12T19:46:12;95241.34;;;20.78;100.00
68889;BME280;55930;47.412;8.790;2023-08-12T19:49:33;95253.72;;;20.68;100.00
68889;BME280;55930;47.412;8.790;2023-08-12T19:52:53;95247.44;;;20.59;100.00
68889;BME280;55930;47.412;8.790;2023-08-12T19:56:14;95246.94;;;20.37;100.00
68889;BME280;55930;47.412;8.790;2023-08-12T19:59:37;95271.91;;;20.43;100.00
68889;BME280;55930;47.412;8.790;2023-08-12T20:02:57;95256.53;;;20.32;100.00
68889;BME280;55930;47.412;8.790;2023-08-12T20:06:18;95258.78;;;20.28;100.00
68889;BME280;55930;47.412;8.790;2023-08-12T20:09:38;95263.13;;;20.37;100.00
68889;BME280;55930;47.412;8.790;2023-08-12T20:12:59;95258.81;;;20.22;100.00
68889;BME280;55930;47.412;8.790;2023-08-12T20:16:22;95269.75;;;20.06;100.00
68889;BME280;55930;47.412;8.790;2023-08-12T20:19:42;95263.31;;;20.14;100.00
68889;BME280;55930;47.412;8.790;2023-08-12T20:23:03;95266.81;;;20.04;100.00
68889;BME280;55930;47.412;8.790;2023-08-12T20:26:23;95261.44;;;20.04;100.00
68889;BME280;55930;47.412;8.790;2023-08-12T20:29:44;95262.63;;;20.08;100.00
68889;BME280;55930;47.412;8.790;2023-08-12T20:33:06;95262.22;;;19.99;100.00
68889;BME280;55930;47.412;8.790;2023-08-12T20:36:26;95263.34;;;19.84;100.00
68889;BME280;55930;47.412;8.790;2023-08-12T20:39:51;95264.63;;;19.78;100.00
68889;BME280;55930;47.412;8.790;2023-08-12T20:43:11;95269.72;;;19.81;100.00
68889;BME280;55930;47.412;8.790;2023-08-12T20:46:32;95282.69;;;19.83;100.00
68889;BME280;55930;47.412;8.790;2023-08-12T20:49:52;95275.00;;;19.63;100.00
68889;BME280;55930;47.412;8.790;2023-08-12T20:53:13;95271.06;;;19.64;100.00
68889;BME280;55930;47.412;8.790;2023-08-12T20:56:33;95273.19;;;19.76;100.00
68889;BME280;55930;47.412;8.790;2023-08-12T20:59:56;95266.16;;;19.68;100.00
68889;BME280;55930;47.412;8.790;2023-08-12T21:03:17;95275.94;;;19.65;100.00
68889;BME280;55930;47.412;8.790;2023-08-12T21:06:38;95286.50;;;19.63;100.00
68889;BME280;55930;47.412;8.790;2023-08-12T21:09:58;95291.78;;;19.74;100.00
68889;BME280;55930;47.412;8.790;2023-08-12T21:13:19;95293.00;;;19.79;100.00
68889;BME280;55930;47.412;8.790;2023-08-12T21:16:40;95291.31;;;19.76;100.00
68889;BME280;55930;47.412;8.790;2023-08-12T21:20:00;95291.25;;;19.81;100.00
68889;BME280;55930;47.412;8.790;2023-08-12T21:23:20;95297.59;;;19.84;100.00
68889;BME280;55930;47.412;8.790;2023-08-12T21:26:41;95301.16;;;19.98;100.00
68889;BME280;55930;47.412;8.790;2023-08-12T21:30:02;95291.50;;;19.83;100.00
68889;BME280;55930;47.412;8.790;2023-08-12T21:33:22;95301.53;;;19.83;100.00
68889;BME280;55930;47.412;8.790;2023-08-12T21:36:43;95295.84;;;19.92;100.00
68889;BME280;55930;47.412;8.790;2023-08-12T21:40:03;95292.84;;;19.96;100.00
68889;BME280;55930;47.412;8.790;2023-08-12T21:43:24;95295.53;;;19.96;100.00
68889;BME280;55930;47.412;8.790;2023-08-12T21:46:44;95290.72;;;19.88;100.00
68889;BME280;55930;47.412;8.790;2023-08-12T21:50:05;95293.56;;;20.02;100.00
68889;BME280;55930;47.412;8.790;2023-08-12T21:53:26;95283.97;;;20.06;100.00
68889;BME280;55930;47.412;8.790;2023-08-12T21:56:46;95280.66;;;19.89;100.00
68889;BME280;55930;47.412;8.790;2023-08-12T22:00:07;95287.25;;;19.94;100.00
68889;BME280;55930;47.412;8.790;2023-08-12T22:03:32;95284.31;;;19.92;100.00
68889;BME280;55930;47.412;8.790;2023-08-12T22:06:52;95279.25;;;19.82;100.00
68889;BME280;55930;47.412;8.790;2023-08-12T22:10:15;95279.75;;;19.81;100.00
68889;BME280;55930;47.412;8.790;2023-08-12T22:13:35;95287.81;;;19.86;100.00
68889;BME280;55930;47.412;8.790;2023-08-12T22:16:55;95288.31;;;19.85;100.00
68889;BME280;55930;47.412;8.790;2023-08-12T22:20:17;95291.75;;;19.80;100.00
68889;BME280;55930;47.412;8.790;2023-08-12T22:23:39;95289.44;;;19.95;100.00
68889;BME280;55930;47.412;8.790;2023-08-12T22:26:59;95270.38;;;19.93;100.00
68889;BME280;55930;47.412;8.790;2023-08-12T22:30:22;95261.78;;;19.95;100.00
68889;BME280;55930;47.412;8.790;2023-08-12T22:33:43;95274.97;;;19.98;100.00
68889;BME280;55930;47.412;8.790;2023-08-12T22:37:05;95262.81;;;20.16;100.00
68889;BME280;55930;47.412;8.790;2023-08-12T22:40:26;95262.88;;;20.10;100.00
68889;BME280;55930;47.412;8.790;2023-08-12T22:43:46;95257.13;;;19.95;100.00
68889;BME280;55930;47.412;8.790;2023-08-12T22:47:07;95262.19;;;19.74;100.00
68889;BME280;55930;47.412;8.790;2023-08-12T22:50:27;95267.13;;;19.65;100.00
68889;BME280;55930;47.412;8.790;2023-08-12T22:53:50;95270.88;;;19.56;100.00
68889;BME280;55930;47.412;8.790;2023-08-12T22:57:11;95275.56;;;19.44;100.00
68889;BME280;55930;47.412;8.790;2023-08-12T23:00:31;95263.66;;;19.34;100.00
68889;BME280;55930;47.412;8.790;2023-08-12T23:03:52;95269.72;;;19.40;100.00
68889;BME280;55930;47.412;8.790;2023-08-12T23:07:12;95267.81;;;19.35;100.00
68889;BME280;55930;47.412;8.790;2023-08-12T23:10:33;95264.88;;;19.33;100.00
68889;BME280;55930;47.412;8.790;2023-08-12T23:13:53;95262.03;;;19.20;100.00
68889;BME280;55930;47.412;8.790;2023-08-12T23:17:13;95267.69;;;19.11;100.00
68889;BME280;55930;47.412;8.790;2023-08-12T23:20:34;95277.25;;;19.06;100.00
68889;BME280;55930;47.412;8.790;2023-08-12T23:23:54;95273.09;;;19.05;100.00
68889;BME280;55930;47.412;8.790;2023-08-12T23:27:15;95276.31;;;18.98;100.00
68889;BME280;55930;47.412;8.790;2023-08-12T23:30:35;95277.09;;;18.88;100.00
68889;BME280;55930;47.412;8.790;2023-08-12T23:33:56;95275.38;;;18.85;100.00
68889;BME280;55930;47.412;8.790;2023-08-12T23:37:16;95271.97;;;18.84;100.00
68889;BME280;55930;47.412;8.790;2023-08-12T23:40:37;95268.59;;;18.72;100.00
68889;BME280;55930;47.412;8.790;2023-08-12T23:43:57;95269.28;;;18.79;100.00
68889;BME280;55930;47.412;8.790;2023-08-12T23:47:17;95263.91;;;18.79;100.00
68889;BME280;55930;47.412;8.790;2023-08-12T23:50:38;95259.34;;;18.62;100.00
68889;BME280;55930;47.412;8.790;2023-08-12T23:54:00;95264.19;;;18.69;100.00